Cincinnati, Ohio
Traffic Map
Current Weather Conditions
Cincinnati, Ohio
Broken Clouds
Broken Clouds
74°
Feels Like: 74°
Wind Chill: 74° Ceiling: 10000
Heat Index: 74° Visibility: 10mi
Dew Point: 69° Wind: 6mph
Humidity: 85% Direction: 90° (E)
Pressure: 29.89in Gusts: 0mph
Raw Report DataKLUK 021753Z 09005KT 10SM FEW039 FEW050 BKN100 23/21 A2989 RMK AO2 SLP119 60001 T02330206 10233 20200 58004
Traffic Incident Summary
Active as of:
Severity:
Category:
InformationThere was an issue retrieving the traffic information for this location. Please try a different location or try again shortly.
Advertisements
Track Severe Weather on mobile